sensor_id;sensor_type;location;lat;lon;timestamp;temperature;humidity
29341;DHT22;16337;59.536;13.468;2022-10-31T00:02:22;7.30;99.90
29341;DHT22;16337;59.536;13.468;2022-10-31T00:04:47;7.30;99.90
29341;DHT22;16337;59.536;13.468;2022-10-31T00:07:13;7.40;99.90
29341;DHT22;16337;59.536;13.468;2022-10-31T00:09:39;7.40;99.90
29341;DHT22;16337;59.536;13.468;2022-10-31T00:12:04;7.40;99.90
29341;DHT22;16337;59.536;13.468;2022-10-31T00:14:30;7.50;99.90
29341;DHT22;16337;59.536;13.468;2022-10-31T00:16:56;7.50;99.90
29341;DHT22;16337;59.536;13.468;2022-10-31T00:19:21;7.50;99.90
29341;DHT22;16337;59.536;13.468;2022-10-31T00:21:47;7.50;99.90
29341;DHT22;16337;59.536;13.468;2022-10-31T00:24:13;7.50;99.90
29341;DHT22;16337;59.536;13.468;2022-10-31T00:26:38;7.50;99.90
29341;DHT22;16337;59.536;13.468;2022-10-31T00:29:04;7.50;99.90
29341;DHT22;16337;59.536;13.468;2022-10-31T00:31:30;7.50;99.90
29341;DHT22;16337;59.536;13.468;2022-10-31T00:33:57;7.50;99.90
29341;DHT22;16337;59.536;13.468;2022-10-31T00:36:22;7.50;99.90
29341;DHT22;16337;59.536;13.468;2022-10-31T00:38:48;7.60;99.90
29341;DHT22;16337;59.536;13.468;2022-10-31T00:41:15;7.50;99.90
29341;DHT22;16337;59.536;13.468;2022-10-31T00:43:42;7.50;99.90
29341;DHT22;16337;59.536;13.468;2022-10-31T00:46:08;7.60;99.90
29341;DHT22;16337;59.536;13.468;2022-10-31T00:48:34;7.60;99.90
29341;DHT22;16337;59.536;13.468;2022-10-31T00:50:59;7.60;99.90
29341;DHT22;16337;59.536;13.468;2022-10-31T00:53:25;7.60;99.90
29341;DHT22;16337;59.536;13.468;2022-10-31T00:55:51;7.60;99.90
29341;DHT22;16337;59.536;13.468;2022-10-31T00:58:16;7.60;99.90
29341;DHT22;16337;59.536;13.468;2022-10-31T01:00:42;7.60;99.90
29341;DHT22;16337;59.536;13.468;2022-10-31T01:03:08;7.60;99.90
29341;DHT22;16337;59.536;13.468;2022-10-31T01:05:33;7.60;99.90
29341;DHT22;16337;59.536;13.468;2022-10-31T01:07:59;7.60;99.90
29341;DHT22;16337;59.536;13.468;2022-10-31T01:10:25;7.60;99.90
29341;DHT22;16337;59.536;13.468;2022-10-31T01:12:50;7.60;99.90
29341;DHT22;16337;59.536;13.468;2022-10-31T01:15:20;7.60;99.90
29341;DHT22;16337;59.536;13.468;2022-10-31T01:17:47;7.60;99.90
29341;DHT22;16337;59.536;13.468;2022-10-31T01:20:14;7.60;99.90
29341;DHT22;16337;59.536;13.468;2022-10-31T01:22:40;7.60;99.90
29341;DHT22;16337;59.536;13.468;2022-10-31T01:25:07;7.60;99.90
29341;DHT22;16337;59.536;13.468;2022-10-31T01:27:34;7.70;99.90
29341;DHT22;16337;59.536;13.468;2022-10-31T01:29:59;7.60;99.90
29341;DHT22;16337;59.536;13.468;2022-10-31T01:32:26;7.70;99.90
29341;DHT22;16337;59.536;13.468;2022-10-31T01:34:54;7.60;99.90
29341;DHT22;16337;59.536;13.468;2022-10-31T01:37:20;7.70;99.90
29341;DHT22;16337;59.536;13.468;2022-10-31T01:39:47;7.70;99.90
29341;DHT22;16337;59.536;13.468;2022-10-31T01:42:18;7.70;99.90
29341;DHT22;16337;59.536;13.468;2022-10-31T01:44:54;7.70;99.90
29341;DHT22;16337;59.536;13.468;2022-10-31T01:47:34;7.70;99.90
29341;DHT22;16337;59.536;13.468;2022-10-31T01:50:06;7.80;99.90
29341;DHT22;16337;59.536;13.468;2022-10-31T01:52:44;7.80;99.90
29341;DHT22;16337;59.536;13.468;2022-10-31T01:55:12;7.80;99.90
29341;DHT22;16337;59.536;13.468;2022-10-31T01:57:41;7.80;99.90
29341;DHT22;16337;59.536;13.468;2022-10-31T02:00:10;7.80;99.90
29341;DHT22;16337;59.536;13.468;2022-10-31T02:02:36;7.70;99.90
29341;DHT22;16337;59.536;13.468;2022-10-31T02:05:05;7.80;99.90
29341;DHT22;16337;59.536;13.468;2022-10-31T02:07:38;7.80;99.90
29341;DHT22;16337;59.536;13.468;2022-10-31T02:10:04;7.80;99.90
29341;DHT22;16337;59.536;13.468;2022-10-31T02:12:31;7.80;99.90
29341;DHT22;16337;59.536;13.468;2022-10-31T02:14:59;7.80;99.90
29341;DHT22;16337;59.536;13.468;2022-10-31T02:17:25;7.80;99.90
29341;DHT22;16337;59.536;13.468;2022-10-31T02:19:59;7.80;99.90
29341;DHT22;16337;59.536;13.468;2022-10-31T02:22:34;7.80;99.90
29341;DHT22;16337;59.536;13.468;2022-10-31T02:25:30;7.80;99.90
29341;DHT22;16337;59.536;13.468;2022-10-31T02:28:28;7.80;99.90
29341;DHT22;16337;59.536;13.468;2022-10-31T02:33:42;7.80;99.90
29341;DHT22;16337;59.536;13.468;2022-10-31T02:39:18;7.80;99.90
29341;DHT22;16337;59.536;13.468;2022-10-31T02:41:58;7.80;99.90
29341;DHT22;16337;59.536;13.468;2022-10-31T02:44:44;7.80;99.90
29341;DHT22;16337;59.536;13.468;2022-10-31T02:47:18;7.80;99.90
29341;DHT22;16337;59.536;13.468;2022-10-31T02:52:26;7.90;99.90
29341;DHT22;16337;59.536;13.468;2022-10-31T02:54:53;7.90;99.90
29341;DHT22;16337;59.536;13.468;2022-10-31T02:57:32;7.90;99.90
29341;DHT22;16337;59.536;13.468;2022-10-31T03:00:03;7.90;99.90
29341;DHT22;16337;59.536;13.468;2022-10-31T03:08:34;8.00;99.90
29341;DHT22;16337;59.536;13.468;2022-10-31T03:11:03;8.00;99.90
29341;DHT22;16337;59.536;13.468;2022-10-31T03:13:38;8.00;99.90
29341;DHT22;16337;59.536;13.468;2022-10-31T03:18:53;8.00;99.90
29341;DHT22;16337;59.536;13.468;2022-10-31T03:21:27;8.10;99.90
29341;DHT22;16337;59.536;13.468;2022-10-31T03:23:56;8.10;99.90
29341;DHT22;16337;59.536;13.468;2022-10-31T03:26:23;8.10;99.90
29341;DHT22;16337;59.536;13.468;2022-10-31T03:28:57;8.10;99.90
29341;DHT22;16337;59.536;13.468;2022-10-31T03:31:30;8.10;99.90
29341;DHT22;16337;59.536;13.468;2022-10-31T03:33:58;8.20;99.90
29341;DHT22;16337;59.536;13.468;2022-10-31T03:36:26;8.20;99.90
29341;DHT22;16337;59.536;13.468;2022-10-31T03:38:52;8.20;99.90
29341;DHT22;16337;59.536;13.468;2022-10-31T03:41:22;8.20;99.90
29341;DHT22;16337;59.536;13.468;2022-10-31T03:44:04;8.30;99.90
29341;DHT22;16337;59.536;13.468;2022-10-31T03:46:31;8.20;99.90
29341;DHT22;16337;59.536;13.468;2022-10-31T03:48:57;8.30;99.90
29341;DHT22;16337;59.536;13.468;2022-10-31T03:51:48;8.30;99.90
29341;DHT22;16337;59.536;13.468;2022-10-31T03:54:45;8.30;99.90
29341;DHT22;16337;59.536;13.468;2022-10-31T03:57:43;8.30;99.90
29341;DHT22;16337;59.536;13.468;2022-10-31T04:00:14;8.40;99.90
29341;DHT22;16337;59.536;13.468;2022-10-31T04:02:45;8.40;99.90
29341;DHT22;16337;59.536;13.468;2022-10-31T04:05:13;8.40;99.90
29341;DHT22;16337;59.536;13.468;2022-10-31T04:07:43;8.50;99.90
29341;DHT22;16337;59.536;13.468;2022-10-31T04:10:13;8.60;99.90
29341;DHT22;16337;59.536;13.468;2022-10-31T04:12:42;8.50;99.90
29341;DHT22;16337;59.536;13.468;2022-10-31T04:15:09;8.60;99.90
29341;DHT22;16337;59.536;13.468;2022-10-31T04:17:38;8.60;99.90
29341;DHT22;16337;59.536;13.468;2022-10-31T04:20:05;8.70;99.90
29341;DHT22;16337;59.536;13.468;2022-10-31T04:22:31;8.70;99.90
29341;DHT22;16337;59.536;13.468;2022-10-31T04:24:57;8.70;99.90
29341;DHT22;16337;59.536;13.468;2022-10-31T04:27:22;8.80;99.90
29341;DHT22;16337;59.536;13.468;2022-10-31T04:29:48;8.80;99.90
29341;DHT22;16337;59.536;13.468;2022-10-31T04:32:13;8.80;99.90
29341;DHT22;16337;59.536;13.468;2022-10-31T04:34:39;8.80;99.90
29341;DHT22;16337;59.536;13.468;2022-10-31T04:37:05;8.80;99.90
29341;DHT22;16337;59.536;13.468;2022-10-31T04:39:30;8.80;99.90
29341;DHT22;16337;59.536;13.468;2022-10-31T04:41:56;8.80;99.90
29341;DHT22;16337;59.536;13.468;2022-10-31T04:44:22;8.90;99.90
29341;DHT22;16337;59.536;13.468;2022-10-31T04:46:47;9.00;99.90
29341;DHT22;16337;59.536;13.468;2022-10-31T04:49:13;9.00;99.90
29341;DHT22;16337;59.536;13.468;2022-10-31T04:51:38;9.10;99.90
29341;DHT22;16337;59.536;13.468;2022-10-31T04:54:04;9.10;99.90
29341;DHT22;16337;59.536;13.468;2022-10-31T04:56:30;9.20;99.90
29341;DHT22;16337;59.536;13.468;2022-10-31T04:58:56;9.20;99.90
29341;DHT22;16337;59.536;13.468;2022-10-31T05:01:21;9.20;99.90
29341;DHT22;16337;59.536;13.468;2022-10-31T05:03:47;9.20;99.90
29341;DHT22;16337;59.536;13.468;2022-10-31T05:06:13;9.30;99.90
29341;DHT22;16337;59.536;13.468;2022-10-31T05:08:38;9.30;99.90
29341;DHT22;16337;59.536;13.468;2022-10-31T05:11:04;9.30;99.90
29341;DHT22;16337;59.536;13.468;2022-10-31T05:13:31;9.30;99.90
29341;DHT22;16337;59.536;13.468;2022-10-31T05:15:56;9.30;99.90
29341;DHT22;16337;59.536;13.468;2022-10-31T05:18:22;9.30;99.90
29341;DHT22;16337;59.536;13.468;2022-10-31T05:20:48;9.30;99.90
29341;DHT22;16337;59.536;13.468;2022-10-31T05:23:14;9.30;99.90
29341;DHT22;16337;59.536;13.468;2022-10-31T05:25:40;9.30;99.90
29341;DHT22;16337;59.536;13.468;2022-10-31T05:28:06;9.30;99.90
29341;DHT22;16337;59.536;13.468;2022-10-31T05:30:33;9.30;99.90
29341;DHT22;16337;59.536;13.468;2022-10-31T05:33:00;9.40;99.90
29341;DHT22;16337;59.536;13.468;2022-10-31T05:35:27;9.40;99.90
29341;DHT22;16337;59.536;13.468;2022-10-31T05:37:53;9.50;99.90
29341;DHT22;16337;59.536;13.468;2022-10-31T05:40:20;9.50;99.90
29341;DHT22;16337;59.536;13.468;2022-10-31T05:42:46;9.50;99.90
29341;DHT22;16337;59.536;13.468;2022-10-31T05:45:15;9.50;99.90
29341;DHT22;16337;59.536;13.468;2022-10-31T05:47:41;9.60;99.90
29341;DHT22;16337;59.536;13.468;2022-10-31T05:50:08;9.60;99.90
29341;DHT22;16337;59.536;13.468;2022-10-31T05:52:34;9.60;99.90
29341;DHT22;16337;59.536;13.468;2022-10-31T05:55:00;9.60;99.90
29341;DHT22;16337;59.536;13.468;2022-10-31T05:57:26;9.60;99.90
29341;DHT22;16337;59.536;13.468;2022-10-31T05:59:51;9.60;99.90
29341;DHT22;16337;59.536;13.468;2022-10-31T06:02:21;9.60;99.90
29341;DHT22;16337;59.536;13.468;2022-10-31T06:04:47;9.70;99.90
29341;DHT22;16337;59.536;13.468;2022-10-31T06:07:12;9.80;99.90
29341;DHT22;16337;59.536;13.468;2022-10-31T06:09:38;9.70;99.90
29341;DHT22;16337;59.536;13.468;2022-10-31T06:12:04;9.70;99.90
29341;DHT22;16337;59.536;13.468;2022-10-31T06:14:29;9.70;99.90
29341;DHT22;16337;59.536;13.468;2022-10-31T06:16:55;9.80;99.90
29341;DHT22;16337;59.536;13.468;2022-10-31T06:19:21;9.90;99.90
29341;DHT22;16337;59.536;13.468;2022-10-31T06:21:47;9.80;99.90
29341;DHT22;16337;59.536;13.468;2022-10-31T06:24:12;9.80;99.90
29341;DHT22;16337;59.536;13.468;2022-10-31T06:26:38;9.80;99.90
29341;DHT22;16337;59.536;13.468;2022-10-31T06:29:04;9.80;99.90
29341;DHT22;16337;59.536;13.468;2022-10-31T06:31:29;9.80;99.90
29341;DHT22;16337;59.536;13.468;2022-10-31T06:33:55;9.80;99.90
29341;DHT22;16337;59.536;13.468;2022-10-31T06:36:21;9.90;99.90
29341;DHT22;16337;59.536;13.468;2022-10-31T06:38:46;9.90;99.90
29341;DHT22;16337;59.536;13.468;2022-10-31T06:41:12;9.90;99.90
29341;DHT22;16337;59.536;13.468;2022-10-31T06:43:38;10.00;99.90
29341;DHT22;16337;59.536;13.468;2022-10-31T06:46:04;10.00;99.90
29341;DHT22;16337;59.536;13.468;2022-10-31T06:48:31;10.10;99.90
29341;DHT22;16337;59.536;13.468;2022-10-31T06:50:58;10.10;99.90
29341;DHT22;16337;59.536;13.468;2022-10-31T06:53:25;10.10;99.90
29341;DHT22;16337;59.536;13.468;2022-10-31T06:55:51;10.20;99.90
29341;DHT22;16337;59.536;13.468;2022-10-31T06:58:16;10.30;99.90
29341;DHT22;16337;59.536;13.468;2022-10-31T07:00:42;10.30;99.90
29341;DHT22;16337;59.536;13.468;2022-10-31T07:03:12;10.30;99.90
29341;DHT22;16337;59.536;13.468;2022-10-31T07:05:38;10.30;99.90
29341;DHT22;16337;59.536;13.468;2022-10-31T07:08:06;10.30;99.90
29341;DHT22;16337;59.536;13.468;2022-10-31T07:10:34;10.30;99.90
29341;DHT22;16337;59.536;13.468;2022-10-31T07:13:02;10.30;99.90
29341;DHT22;16337;59.536;13.468;2022-10-31T07:15:30;10.40;99.90
29341;DHT22;16337;59.536;13.468;2022-10-31T07:18:05;10.30;99.90
29341;DHT22;16337;59.536;13.468;2022-10-31T07:20:31;10.40;99.90
29341;DHT22;16337;59.536;13.468;2022-10-31T07:22:58;10.40;99.90
29341;DHT22;16337;59.536;13.468;2022-10-31T07:25:24;10.40;99.90
29341;DHT22;16337;59.536;13.468;2022-10-31T07:27:50;10.40;99.90
29341;DHT22;16337;59.536;13.468;2022-10-31T07:30:16;10.40;99.90
29341;DHT22;16337;59.536;13.468;2022-10-31T07:32:49;10.40;99.90
29341;DHT22;16337;59.536;13.468;2022-10-31T07:35:17;10.50;99.90
29341;DHT22;16337;59.536;13.468;2022-10-31T07:37:43;10.60;99.90
29341;DHT22;16337;59.536;13.468;2022-10-31T07:40:09;10.70;99.90
29341;DHT22;16337;59.536;13.468;2022-10-31T07:45:03;10.80;99.90
29341;DHT22;16337;59.536;13.468;2022-10-31T07:47:28;10.80;99.90
29341;DHT22;16337;59.536;13.468;2022-10-31T07:49:54;10.90;99.90
29341;DHT22;16337;59.536;13.468;2022-10-31T07:52:20;10.90;99.90
29341;DHT22;16337;59.536;13.468;2022-10-31T07:54:45;11.00;99.90
29341;DHT22;16337;59.536;13.468;2022-10-31T07:57:11;11.00;99.90
29341;DHT22;16337;59.536;13.468;2022-10-31T07:59:36;11.00;99.90
29341;DHT22;16337;59.536;13.468;2022-10-31T08:02:02;11.10;99.90
29341;DHT22;16337;59.536;13.468;2022-10-31T08:04:28;11.20;99.90
29341;DHT22;16337;59.536;13.468;2022-10-31T08:06:53;11.20;99.90
29341;DHT22;16337;59.536;13.468;2022-10-31T08:09:19;11.20;99.90
29341;DHT22;16337;59.536;13.468;2022-10-31T08:11:45;11.20;99.90
29341;DHT22;16337;59.536;13.468;2022-10-31T08:14:10;11.30;99.90
29341;DHT22;16337;59.536;13.468;2022-10-31T08:16:36;11.30;99.90
29341;DHT22;16337;59.536;13.468;2022-10-31T08:19:01;11.30;99.90
29341;DHT22;16337;59.536;13.468;2022-10-31T08:21:27;11.30;99.90
29341;DHT22;16337;59.536;13.468;2022-10-31T08:23:53;11.30;99.90
29341;DHT22;16337;59.536;13.468;2022-10-31T08:26:18;11.40;99.90
29341;DHT22;16337;59.536;13.468;2022-10-31T08:28:44;11.40;99.90
29341;DHT22;16337;59.536;13.468;2022-10-31T08:31:09;11.40;99.90
29341;DHT22;16337;59.536;13.468;2022-10-31T08:33:35;11.40;99.90
29341;DHT22;16337;59.536;13.468;2022-10-31T08:36:01;11.50;99.90
29341;DHT22;16337;59.536;13.468;2022-10-31T08:38:27;11.50;99.90
29341;DHT22;16337;59.536;13.468;2022-10-31T08:40:52;11.50;99.90
29341;DHT22;16337;59.536;13.468;2022-10-31T08:43:18;11.50;99.90
29341;DHT22;16337;59.536;13.468;2022-10-31T08:45:48;11.50;99.90
29341;DHT22;16337;59.536;13.468;2022-10-31T08:48:16;11.50;99.90
29341;DHT22;16337;59.536;13.468;2022-10-31T08:50:43;11.50;99.90
29341;DHT22;16337;59.536;13.468;2022-10-31T08:53:12;11.60;99.90
29341;DHT22;16337;59.536;13.468;2022-10-31T08:55:39;11.70;99.90
29341;DHT22;16337;59.536;13.468;2022-10-31T08:58:06;11.70;99.90
29341;DHT22;16337;59.536;13.468;2022-10-31T09:00:33;11.80;99.90
29341;DHT22;16337;59.536;13.468;2022-10-31T09:03:04;11.80;99.90
29341;DHT22;16337;59.536;13.468;2022-10-31T09:05:31;11.80;99.90
29341;DHT22;16337;59.536;13.468;2022-10-31T09:07:58;11.90;99.90
29341;DHT22;16337;59.536;13.468;2022-10-31T09:10:25;11.90;99.90
29341;DHT22;16337;59.536;13.468;2022-10-31T09:12:58;11.90;99.90
29341;DHT22;16337;59.536;13.468;2022-10-31T09:15:25;12.00;99.90
29341;DHT22;16337;59.536;13.468;2022-10-31T09:17:51;11.90;99.90
29341;DHT22;16337;59.536;13.468;2022-10-31T09:20:17;11.90;99.90
29341;DHT22;16337;59.536;13.468;2022-10-31T09:22:44;11.90;99.90
29341;DHT22;16337;59.536;13.468;2022-10-31T09:25:09;11.90;99.90
29341;DHT22;16337;59.536;13.468;2022-10-31T09:27:35;12.00;99.90
29341;DHT22;16337;59.536;13.468;2022-10-31T09:30:01;12.00;99.90
29341;DHT22;16337;59.536;13.468;2022-10-31T09:32:27;12.10;99.90
29341;DHT22;16337;59.536;13.468;2022-10-31T09:34:52;12.10;99.90
29341;DHT22;16337;59.536;13.468;2022-10-31T09:37:18;12.10;99.90
29341;DHT22;16337;59.536;13.468;2022-10-31T09:39:44;12.10;99.90
29341;DHT22;16337;59.536;13.468;2022-10-31T09:42:33;12.10;99.90
29341;DHT22;16337;59.536;13.468;2022-10-31T09:50:31;12.10;99.90
29341;DHT22;16337;59.536;13.468;2022-10-31T09:53:21;12.10;99.90
29341;DHT22;16337;59.536;13.468;2022-10-31T09:55:49;12.20;99.90
29341;DHT22;16337;59.536;13.468;2022-10-31T09:58:27;12.30;99.90
29341;DHT22;16337;59.536;13.468;2022-10-31T10:00:56;12.30;99.90
29341;DHT22;16337;59.536;13.468;2022-10-31T10:03:41;12.30;99.90
29341;DHT22;16337;59.536;13.468;2022-10-31T10:06:15;12.40;99.90
29341;DHT22;16337;59.536;13.468;2022-10-31T10:08:42;12.50;99.90
29341;DHT22;16337;59.536;13.468;2022-10-31T10:13:48;12.80;99.90
29341;DHT22;16337;59.536;13.468;2022-10-31T10:16:22;12.80;99.90
29341;DHT22;16337;59.536;13.468;2022-10-31T10:25:21;12.90;99.90
29341;DHT22;16337;59.536;13.468;2022-10-31T10:30:20;13.10;99.90
29341;DHT22;16337;59.536;13.468;2022-10-31T10:35:53;13.20;99.90
29341;DHT22;16337;59.536;13.468;2022-10-31T10:38:28;13.20;99.90
29341;DHT22;16337;59.536;13.468;2022-10-31T10:40:55;13.20;99.90
29341;DHT22;16337;59.536;13.468;2022-10-31T10:43:24;13.20;99.90
29341;DHT22;16337;59.536;13.468;2022-10-31T10:51:57;13.20;99.90
29341;DHT22;16337;59.536;13.468;2022-10-31T10:54:45;13.10;99.90
29341;DHT22;16337;59.536;13.468;2022-10-31T10:57:45;13.00;99.90
29341;DHT22;16337;59.536;13.468;2022-10-31T11:00:22;12.90;99.90
29341;DHT22;16337;59.536;13.468;2022-10-31T11:02:48;12.90;99.90
29341;DHT22;16337;59.536;13.468;2022-10-31T11:08:02;12.80;99.90
29341;DHT22;16337;59.536;13.468;2022-10-31T11:10:28;12.80;99.90
29341;DHT22;16337;59.536;13.468;2022-10-31T11:16:27;12.80;99.90
29341;DHT22;16337;59.536;13.468;2022-10-31T11:18:38;12.80;99.90
29341;DHT22;16337;59.536;13.468;2022-10-31T11:21:04;12.80;99.90
29341;DHT22;16337;59.536;13.468;2022-10-31T11:23:31;12.80;99.90
29341;DHT22;16337;59.536;13.468;2022-10-31T11:25:59;12.80;99.90
29341;DHT22;16337;59.536;13.468;2022-10-31T11:28:27;12.80;99.90
29341;DHT22;16337;59.536;13.468;2022-10-31T11:30:57;12.90;99.90
29341;DHT22;16337;59.536;13.468;2022-10-31T11:33:36;12.90;99.90
29341;DHT22;16337;59.536;13.468;2022-10-31T11:36:18;13.00;99.90
29341;DHT22;16337;59.536;13.468;2022-10-31T11:38:46;13.10;99.90
29341;DHT22;16337;59.536;13.468;2022-10-31T11:41:18;13.20;99.90
29341;DHT22;16337;59.536;13.468;2022-10-31T11:43:55;13.20;99.90
29341;DHT22;16337;59.536;13.468;2022-10-31T11:46:30;13.20;99.90
29341;DHT22;16337;59.536;13.468;2022-10-31T11:48:58;13.10;99.90
29341;DHT22;16337;59.536;13.468;2022-10-31T11:51:26;13.20;99.90
29341;DHT22;16337;59.536;13.468;2022-10-31T11:53:55;13.30;99.90
29341;DHT22;16337;59.536;13.468;2022-10-31T11:56:22;13.30;99.90
29341;DHT22;16337;59.536;13.468;2022-10-31T11:59:03;13.30;99.90
29341;DHT22;16337;59.536;13.468;2022-10-31T12:01:31;13.40;99.90
29341;DHT22;16337;59.536;13.468;2022-10-31T12:04:10;13.30;99.90
29341;DHT22;16337;59.536;13.468;2022-10-31T12:06:41;13.30;99.90
29341;DHT22;16337;59.536;13.468;2022-10-31T12:14:53;13.20;99.90
29341;DHT22;16337;59.536;13.468;2022-10-31T12:17:30;13.30;99.90
29341;DHT22;16337;59.536;13.468;2022-10-31T12:26:34;13.60;99.90
29341;DHT22;16337;59.536;13.468;2022-10-31T12:34:44;13.30;99.90
29341;DHT22;16337;59.536;13.468;2022-10-31T12:45:56;13.00;99.90
29341;DHT22;16337;59.536;13.468;2022-10-31T13:01:53;12.50;99.90
29341;DHT22;16337;59.536;13.468;2022-10-31T13:04:39;12.50;99.90
29341;DHT22;16337;59.536;13.468;2022-10-31T13:07:13;12.40;99.90
29341;DHT22;16337;59.536;13.468;2022-10-31T13:10:00;12.40;99.90
29341;DHT22;16337;59.536;13.468;2022-10-31T13:12:27;12.30;99.90
29341;DHT22;16337;59.536;13.468;2022-10-31T13:14:58;12.20;99.90
29341;DHT22;16337;59.536;13.468;2022-10-31T13:19:51;12.10;99.90
29341;DHT22;16337;59.536;13.468;2022-10-31T13:22:22;12.00;99.90
29341;DHT22;16337;59.536;13.468;2022-10-31T13:24:57;12.00;99.90
29341;DHT22;16337;59.536;13.468;2022-10-31T13:27:48;11.90;99.90
29341;DHT22;16337;59.536;13.468;2022-10-31T13:30:20;11.90;99.90
29341;DHT22;16337;59.536;13.468;2022-10-31T13:38:40;11.60;99.90
29341;DHT22;16337;59.536;13.468;2022-10-31T13:48:59;11.30;99.90
29341;DHT22;16337;59.536;13.468;2022-10-31T13:51:27;11.10;99.90
29341;DHT22;16337;59.536;13.468;2022-10-31T13:56:27;11.00;99.90
29341;DHT22;16337;59.536;13.468;2022-10-31T14:01:26;11.00;99.90
29341;DHT22;16337;59.536;13.468;2022-10-31T14:04:01;11.10;99.90
29341;DHT22;16337;59.536;13.468;2022-10-31T14:06:54;11.10;99.90
29341;DHT22;16337;59.536;13.468;2022-10-31T14:09:29;11.10;99.90
29341;DHT22;16337;59.536;13.468;2022-10-31T14:11:58;11.10;99.90
29341;DHT22;16337;59.536;13.468;2022-10-31T14:14:33;11.10;99.90
29341;DHT22;16337;59.536;13.468;2022-10-31T14:17:00;11.10;99.90
29341;DHT22;16337;59.536;13.468;2022-10-31T14:19:26;11.00;99.90
29341;DHT22;16337;59.536;13.468;2022-10-31T14:21:52;10.90;99.90
29341;DHT22;16337;59.536;13.468;2022-10-31T14:26:58;10.70;99.90
29341;DHT22;16337;59.536;13.468;2022-10-31T14:29:28;10.60;99.90
29341;DHT22;16337;59.536;13.468;2022-10-31T14:34:36;10.20;99.90
29341;DHT22;16337;59.536;13.468;2022-10-31T14:48:12;9.50;99.90
29341;DHT22;16337;59.536;13.468;2022-10-31T14:50:45;9.40;99.90
29341;DHT22;16337;59.536;13.468;2022-10-31T14:53:21;9.20;99.90
29341;DHT22;16337;59.536;13.468;2022-10-31T14:55:51;9.20;99.90
29341;DHT22;16337;59.536;13.468;2022-10-31T14:58:23;9.10;99.90
29341;DHT22;16337;59.536;13.468;2022-10-31T15:00:54;9.00;99.90
29341;DHT22;16337;59.536;13.468;2022-10-31T15:03:39;8.90;99.90
29341;DHT22;16337;59.536;13.468;2022-10-31T15:06:11;8.80;99.90
29341;DHT22;16337;59.536;13.468;2022-10-31T15:08:38;8.80;99.90
29341;DHT22;16337;59.536;13.468;2022-10-31T15:11:37;8.70;99.90
29341;DHT22;16337;59.536;13.468;2022-10-31T15:14:38;8.60;99.90
29341;DHT22;16337;59.536;13.468;2022-10-31T15:17:03;8.50;99.90
29341;DHT22;16337;59.536;13.468;2022-10-31T15:19:32;8.40;99.90
29341;DHT22;16337;59.536;13.468;2022-10-31T15:22:00;8.40;99.90
29341;DHT22;16337;59.536;13.468;2022-10-31T15:24:34;8.40;99.90
29341;DHT22;16337;59.536;13.468;2022-10-31T15:27:01;8.50;99.90
29341;DHT22;16337;59.536;13.468;2022-10-31T15:29:27;8.60;99.90
29341;DHT22;16337;59.536;13.468;2022-10-31T15:32:33;8.60;99.90
29341;DHT22;16337;59.536;13.468;2022-10-31T15:34:59;8.70;99.90
29341;DHT22;16337;59.536;13.468;2022-10-31T15:37:25;8.70;99.90
29341;DHT22;16337;59.536;13.468;2022-10-31T15:39:52;8.80;99.90
29341;DHT22;16337;59.536;13.468;2022-10-31T15:42:33;8.90;99.90
29341;DHT22;16337;59.536;13.468;2022-10-31T15:45:25;9.00;99.90
29341;DHT22;16337;59.536;13.468;2022-10-31T15:48:03;9.00;99.90
29341;DHT22;16337;59.536;13.468;2022-10-31T15:50:38;9.10;99.90
29341;DHT22;16337;59.536;13.468;2022-10-31T15:53:14;9.10;99.90
29341;DHT22;16337;59.536;13.468;2022-10-31T15:55:50;9.10;99.90
29341;DHT22;16337;59.536;13.468;2022-10-31T15:58:17;9.20;99.90
29341;DHT22;16337;59.536;13.468;2022-10-31T16:00:43;9.20;99.90
29341;DHT22;16337;59.536;13.468;2022-10-31T16:08:44;9.20;99.90
29341;DHT22;16337;59.536;13.468;2022-10-31T16:13:41;9.30;99.90
29341;DHT22;16337;59.536;13.468;2022-10-31T16:16:17;9.40;99.90
29341;DHT22;16337;59.536;13.468;2022-10-31T16:18:46;9.30;99.90
29341;DHT22;16337;59.536;13.468;2022-10-31T16:21:13;9.40;99.90
29341;DHT22;16337;59.536;13.468;2022-10-31T16:23:44;9.40;99.90
29341;DHT22;16337;59.536;13.468;2022-10-31T16:26:16;9.40;99.90
29341;DHT22;16337;59.536;13.468;2022-10-31T16:28:51;9.40;99.90
29341;DHT22;16337;59.536;13.468;2022-10-31T16:31:27;9.50;99.90
29341;DHT22;16337;59.536;13.468;2022-10-31T16:34:19;9.50;99.90
29341;DHT22;16337;59.536;13.468;2022-10-31T16:36:45;9.50;99.90
29341;DHT22;16337;59.536;13.468;2022-10-31T16:39:11;9.60;99.90
29341;DHT22;16337;59.536;13.468;2022-10-31T16:41:49;9.50;99.90
29341;DHT22;16337;59.536;13.468;2022-10-31T16:44:22;9.50;99.90
29341;DHT22;16337;59.536;13.468;2022-10-31T16:46:51;9.50;99.90
29341;DHT22;16337;59.536;13.468;2022-10-31T16:49:31;9.50;99.90
29341;DHT22;16337;59.536;13.468;2022-10-31T16:51:57;9.60;99.90
29341;DHT22;16337;59.536;13.468;2022-10-31T16:54:23;9.60;99.90
29341;DHT22;16337;59.536;13.468;2022-10-31T16:56:48;9.60;99.90
29341;DHT22;16337;59.536;13.468;2022-10-31T16:59:14;9.60;99.90
29341;DHT22;16337;59.536;13.468;2022-10-31T17:01:40;9.60;99.90
29341;DHT22;16337;59.536;13.468;2022-10-31T17:04:13;9.60;99.90
29341;DHT22;16337;59.536;13.468;2022-10-31T17:06:39;9.70;99.90
29341;DHT22;16337;59.536;13.468;2022-10-31T17:09:04;9.70;99.90
29341;DHT22;16337;59.536;13.468;2022-10-31T17:11:30;9.80;99.90
29341;DHT22;16337;59.536;13.468;2022-10-31T17:13:56;9.80;99.90
29341;DHT22;16337;59.536;13.468;2022-10-31T17:16:22;9.90;99.90
29341;DHT22;16337;59.536;13.468;2022-10-31T17:18:48;9.90;99.90
29341;DHT22;16337;59.536;13.468;2022-10-31T17:21:21;9.90;99.90
29341;DHT22;16337;59.536;13.468;2022-10-31T17:23:50;9.90;99.90
29341;DHT22;16337;59.536;13.468;2022-10-31T17:26:17;9.90;99.90
29341;DHT22;16337;59.536;13.468;2022-10-31T17:28:42;9.90;99.90
29341;DHT22;16337;59.536;13.468;2022-10-31T17:31:35;10.00;99.90
29341;DHT22;16337;59.536;13.468;2022-10-31T17:34:01;9.90;99.90
29341;DHT22;16337;59.536;13.468;2022-10-31T17:36:32;9.80;99.90
29341;DHT22;16337;59.536;13.468;2022-10-31T17:38:58;9.80;99.90
29341;DHT22;16337;59.536;13.468;2022-10-31T17:41:24;9.60;99.90
29341;DHT22;16337;59.536;13.468;2022-10-31T17:43:57;9.60;99.90
29341;DHT22;16337;59.536;13.468;2022-10-31T17:46:23;9.60;99.90
29341;DHT22;16337;59.536;13.468;2022-10-31T17:48:49;9.60;99.90
29341;DHT22;16337;59.536;13.468;2022-10-31T17:51:14;9.50;99.90
29341;DHT22;16337;59.536;13.468;2022-10-31T17:53:40;9.40;99.90
29341;DHT22;16337;59.536;13.468;2022-10-31T17:56:07;9.20;99.90
29341;DHT22;16337;59.536;13.468;2022-10-31T17:58:34;9.10;99.90